Cottage Lake, Washington
Current Conditions -  °F | °C
As of 6:01 PM on Friday 21 Nov 2014 (Local Time) from KPAE Reporting Station
Light Rain Light Rain  
Wind Chill: 42°   Ceiling: 1600
Heat Index: 47°   Visibility: 1.7mi
Dew Point: 44°   Wind: 10mph
Humidity: 90%   Direction: 150°SSE
Pressure: 29.32"   Gusts: NA
Location:  47.7637°N, 122.118°W
Report Text: KPAE 220201Z 15009KT 1 3/4SM -RA BR OVC016 08/07 A2932 RMK AO2 P0001 T00830067
Loading
Personal Weather Stations






























Interactive Weather Map New forecast layout! Learn more

10-Day Weather Forecast

Advertisements
Track Severe Weather on mobile